Time;durP1;ratioP1;P1;durP2;ratioP2;P2;SDS_P1;SDS_P2;PMS_P1;PMS_P2;Temp;Humidity;BMP_temperature;BMP_pressure;BME280_temperature;BME280_humidity;BME280_pressure;Samples;Min_cycle;Max_cycle;Signal;HPM_P1;HPM_P2
2023/07/03 00:00:12;;;;;;;15.07;6.00;;;16.30;99.90;;;;;;5055302;28;20116;-71
2023/07/03 00:02:42;;;;;;;12.90;5.78;;;16.30;99.90;;;;;;5054974;28;20060;-71
2023/07/03 00:05:09;;;;;;;11.82;5.85;;;16.30;99.90;;;;;;5038169;28;20475;-71
2023/07/03 00:07:36;;;;;;;10.35;5.53;;;16.30;99.90;;;;;;5054753;28;20128;-70
2023/07/03 00:10:04;;;;;;;13.23;6.50;;;16.20;99.90;;;;;;5054122;28;20389;-72
2023/07/03 00:12:30;;;;;;;8.00;4.70;;;16.20;99.90;;;;;;5054712;28;20051;-71
2023/07/03 00:14:56;;;;;;;9.68;4.97;;;16.20;99.90;;;;;;5054805;28;20049;-70
2023/07/03 00:17:22;;;;;;;13.20;5.75;;;16.20;99.90;;;;;;5054038;28;20118;-71
2023/07/03 00:19:48;;;;;;;7.72;5.00;;;16.20;99.90;;;;;;5054855;28;20041;-71
2023/07/03 00:22:13;;;;;;;11.50;5.90;;;16.20;99.90;;;;;;5055346;28;20469;-71
2023/07/03 00:24:39;;;;;;;14.05;4.53;;;16.10;99.90;;;;;;5054535;28;20547;-71
2023/07/03 00:27:05;;;;;;;12.55;5.78;;;16.10;99.90;;;;;;5054686;28;20484;-71
2023/07/03 00:29:32;;;;;;;9.48;5.85;;;16.10;99.90;;;;;;5053622;28;20504;-71
2023/07/03 00:31:59;;;;;;;7.80;4.60;;;16.10;99.90;;;;;;5055032;28;20091;-71
2023/07/03 00:34:25;;;;;;;9.93;5.15;;;16.10;99.90;;;;;;5055292;28;20051;-71
2023/07/03 00:36:51;;;;;;;8.82;5.47;;;16.00;99.90;;;;;;5054415;28;20102;-71
2023/07/03 00:39:17;;;;;;;10.55;5.00;;;16.00;99.90;;;;;;5054088;28;20536;-72
2023/07/03 00:41:43;;;;;;;11.25;4.97;;;16.10;99.90;;;;;;5052871;28;20470;-72
2023/07/03 00:44:12;;;;;;;8.05;4.70;;;16.00;99.90;;;;;;5036850;28;20056;-71
2023/07/03 00:46:43;;;;;;;12.23;5.55;;;16.00;99.90;;;;;;5053140;28;20045;-72
2023/07/03 00:49:10;;;;;;;8.25;4.75;;;16.00;99.90;;;;;;5053110;28;20182;-72
2023/07/03 00:51:40;;;;;;;8.68;4.75;;;16.00;99.90;;;;;;5053425;28;20077;-72
2023/07/03 00:54:05;;;;;;;12.40;5.30;;;16.00;99.90;;;;;;5054259;28;20045;-73
2023/07/03 00:56:31;;;;;;;9.80;5.13;;;16.00;99.90;;;;;;5053062;28;20098;-73
2023/07/03 00:58:57;;;;;;;9.27;4.80;;;15.90;99.90;;;;;;5053414;28;20037;-72
2023/07/03 01:01:34;;;;;;;9.00;4.72;;;16.00;99.90;;;;;;5053638;28;20083;-70
2023/07/03 01:04:06;;;;;;;7.00;3.67;;;15.90;99.90;;;;;;5053064;28;20045;-70
2023/07/03 01:06:44;;;;;;;9.13;4.93;;;16.00;99.90;;;;;;5054357;28;20049;-71
2023/07/03 01:09:13;;;;;;;10.07;4.80;;;16.00;99.90;;;;;;5053837;28;20049;-71
2023/07/03 01:11:40;;;;;;;11.68;4.72;;;16.00;99.90;;;;;;5053837;28;20091;-71
2023/07/03 01:14:09;;;;;;;7.28;4.72;;;16.00;99.90;;;;;;5053730;28;20454;-71
2023/07/03 01:16:35;;;;;;;8.25;4.88;;;16.00;99.90;;;;;;5053681;28;20053;-71
2023/07/03 01:19:02;;;;;;;9.13;5.53;;;16.00;99.90;;;;;;5054067;28;20072;-71
2023/07/03 01:21:42;;;;;;;8.30;4.68;;;16.00;99.90;;;;;;5052640;28;20377;-71
2023/07/03 01:24:13;;;;;;;8.50;3.67;;;16.00;99.90;;;;;;5054074;28;20044;-71
2023/07/03 01:26:41;;;;;;;9.60;4.85;;;16.00;99.90;;;;;;5053695;28;20056;-71
2023/07/03 01:29:08;;;;;;;14.07;5.35;;;16.10;99.90;;;;;;5053149;28;20059;-71
2023/07/03 01:31:36;;;;;;;9.75;4.97;;;16.10;99.90;;;;;;5053966;28;20056;-71
2023/07/03 01:34:03;;;;;;;6.35;4.30;;;16.10;99.90;;;;;;5053117;28;20049;-71
2023/07/03 01:36:31;;;;;;;7.95;3.88;;;16.10;99.90;;;;;;5052725;28;20087;-68
2023/07/03 01:38:59;;;;;;;6.20;4.47;;;16.10;99.90;;;;;;5053393;28;20049;-70
2023/07/03 01:41:26;;;;;;;11.40;4.65;;;16.10;99.90;;;;;;5053605;28;20175;-71
2023/07/03 01:43:52;;;;;;;7.82;4.10;;;16.10;99.90;;;;;;5053134;28;20059;-71
2023/07/03 01:46:18;;;;;;;13.30;5.00;;;16.10;99.90;;;;;;5053144;28;20044;-71
2023/07/03 01:48:44;;;;;;;8.90;4.72;;;16.10;99.90;;;;;;5053194;28;20117;-70
2023/07/03 01:51:18;;;;;;;9.30;4.50;;;16.20;99.90;;;;;;5035884;28;20458;-71
2023/07/03 01:53:53;;;;;;;14.32;5.13;;;16.20;99.90;;;;;;5053480;28;20080;-71
2023/07/03 01:56:41;;;;;;;7.25;4.10;;;16.20;99.90;;;;;;5053329;28;20127;-71
2023/07/03 01:59:07;;;;;;;10.52;4.97;;;16.20;99.90;;;;;;5053012;28;20080;-71
2023/07/03 02:01:47;;;;;;;10.20;5.75;;;16.20;99.90;;;;;;5052183;28;20487;-71
2023/07/03 02:04:57;;;;;;;12.18;4.55;;;16.20;99.90;;;;;;5052111;28;20052;-70
2023/07/03 02:07:26;;;;;;;8.35;4.53;;;16.20;99.90;;;;;;5047991;28;20061;-70
2023/07/03 02:09:52;;;;;;;6.82;4.10;;;16.30;99.90;;;;;;5052787;28;20083;-70
2023/07/03 02:12:17;;;;;;;10.30;4.55;;;16.30;99.90;;;;;;5052761;28;20045;-71
2023/07/03 02:14:43;;;;;;;10.52;5.45;;;16.30;99.90;;;;;;5051741;28;20044;-71
2023/07/03 02:17:09;;;;;;;10.57;4.93;;;16.30;99.90;;;;;;5052340;28;20462;-71
2023/07/03 02:19:35;;;;;;;11.18;4.85;;;16.30;99.90;;;;;;5052612;28;20037;-69
2023/07/03 02:22:02;;;;;;;7.88;4.00;;;16.30;99.90;;;;;;5052672;28;20048;-68
2023/07/03 02:24:28;;;;;;;7.22;4.55;;;16.30;99.90;;;;;;5052601;28;20081;-69
2023/07/03 02:26:54;;;;;;;7.03;4.78;;;16.30;99.90;;;;;;5051366;28;20098;-68
2023/07/03 02:29:20;;;;;;;9.13;3.65;;;16.30;99.90;;;;;;5052515;28;20045;-69
2023/07/03 02:31:46;;;;;;;7.75;3.85;;;16.30;99.90;;;;;;5052856;28;20041;-69
2023/07/03 02:34:11;;;;;;;10.73;4.55;;;16.30;99.90;;;;;;5052410;28;20123;-69
2023/07/03 02:36:39;;;;;;;7.22;3.58;;;16.30;99.90;;;;;;5052804;28;20099;-68
2023/07/03 02:39:05;;;;;;;8.48;4.22;;;16.30;99.90;;;;;;5052389;28;20045;-69
2023/07/03 02:41:32;;;;;;;7.38;3.83;;;16.30;99.90;;;;;;5052485;28;20531;-68
2023/07/03 02:43:58;;;;;;;12.10;4.60;;;16.20;99.90;;;;;;5052333;28;20045;-69
2023/07/03 02:46:24;;;;;;;5.85;3.40;;;16.20;99.90;;;;;;5052264;28;20093;-69
2023/07/03 02:48:49;;;;;;;8.27;4.07;;;16.20;99.90;;;;;;5052298;28;20052;-68
2023/07/03 02:51:15;;;;;;;11.70;3.78;;;16.10;99.90;;;;;;5052162;28;20533;-69
2023/07/03 02:53:44;;;;;;;8.02;3.90;;;16.10;99.90;;;;;;5052610;28;20080;-69
2023/07/03 02:56:10;;;;;;;6.50;3.63;;;16.10;99.90;;;;;;5052148;28;20049;-69
2023/07/03 02:58:35;;;;;;;5.30;3.42;;;16.00;99.90;;;;;;5052209;28;20055;-69
2023/07/03 03:01:01;;;;;;;8.80;3.63;;;16.00;99.90;;;;;;5052036;28;20041;-68
2023/07/03 03:03:30;;;;;;;6.45;3.33;;;15.90;99.90;;;;;;5052336;28;20041;-69
2023/07/03 03:05:56;;;;;;;8.93;3.47;;;15.90;99.90;;;;;;5052144;28;20600;-69
2023/07/03 03:08:23;;;;;;;5.75;3.70;;;15.80;99.90;;;;;;5052093;28;20057;-69
2023/07/03 03:10:53;;;;;;;7.38;4.10;;;15.80;99.90;;;;;;5051940;28;20564;-69
2023/07/03 03:13:19;;;;;;;4.63;3.50;;;15.70;99.90;;;;;;5052127;28;20036;-68
2023/07/03 03:15:45;;;;;;;9.68;4.07;;;15.70;99.90;;;;;;5052353;28;20044;-69
2023/07/03 03:18:10;;;;;;;6.03;3.72;;;15.60;99.90;;;;;;5052072;28;20049;-68
2023/07/03 03:20:36;;;;;;;9.40;4.03;;;15.60;99.90;;;;;;5052506;28;20045;-69
2023/07/03 03:23:02;;;;;;;6.90;3.30;;;15.50;99.90;;;;;;5053593;28;20049;-69
2023/07/03 03:25:28;;;;;;;8.85;3.20;;;15.50;99.90;;;;;;5056259;28;20443;-68
2023/07/03 03:27:55;;;;;;;7.40;3.40;;;15.40;99.90;;;;;;5054911;28;20049;-69
2023/07/03 03:30:21;;;;;;;7.45;4.15;;;15.40;99.90;;;;;;5055740;28;20045;-70
2023/07/03 03:32:47;;;;;;;9.88;4.55;;;15.30;99.90;;;;;;5056049;28;20442;-69
2023/07/03 03:35:13;;;;;;;6.28;3.88;;;15.30;99.90;;;;;;5056124;28;20106;-70
2023/07/03 03:37:38;;;;;;;11.57;4.10;;;15.20;99.90;;;;;;5055761;28;20450;-69
2023/07/03 03:40:07;;;;;;;9.43;4.40;;;15.10;99.90;;;;;;5054788;28;20560;-70
2023/07/03 03:42:33;;;;;;;7.78;3.30;;;15.10;99.90;;;;;;5055479;28;20045;-69
2023/07/03 03:44:59;;;;;;;9.27;3.90;;;15.00;99.90;;;;;;5055828;28;20049;-69
2023/07/03 03:47:25;;;;;;;5.78;3.10;;;15.00;99.90;;;;;;5056203;28;20181;-69
2023/07/03 03:49:51;;;;;;;5.90;3.25;;;15.00;99.90;;;;;;5055646;28;20131;-69
2023/07/03 03:52:16;;;;;;;7.93;3.38;;;15.00;99.90;;;;;;5054444;28;20041;-69
2023/07/03 03:54:42;;;;;;;5.57;2.75;;;15.00;99.90;;;;;;5055526;28;20045;-69
2023/07/03 03:57:08;;;;;;;7.72;3.63;;;14.90;99.90;;;;;;5055656;28;20470;-69
2023/07/03 03:59:34;;;;;;;4.88;3.53;;;14.90;99.90;;;;;;5055261;28;20120;-69
2023/07/03 04:01:59;;;;;;;6.18;2.55;;;14.90;99.90;;;;;;5055267;28;20059;-69
2023/07/03 04:04:25;;;;;;;6.90;3.45;;;15.00;99.90;;;;;;5054637;28;20037;-69
2023/07/03 04:06:52;;;;;;;8.77;3.33;;;14.90;99.90;;;;;;5055270;28;20079;-69
2023/07/03 04:09:18;;;;;;;8.20;3.40;;;14.90;99.90;;;;;;5055230;28;20041;-69
2023/07/03 04:11:43;;;;;;;8.27;3.42;;;14.90;99.90;;;;;;5055078;28;20044;-69
2023/07/03 04:14:09;;;;;;;7.03;2.65;;;14.90;99.90;;;;;;5054968;28;20045;-70
2023/07/03 04:16:35;;;;;;;6.53;3.55;;;14.90;99.90;;;;;;5055204;28;20060;-69
2023/07/03 04:19:01;;;;;;;5.88;2.90;;;14.90;99.90;;;;;;5054991;28;20190;-69
2023/07/03 04:21:27;;;;;;;4.78;2.75;;;15.00;99.90;;;;;;5055166;28;20083;-68
2023/07/03 04:23:52;;;;;;;6.90;2.95;;;14.90;99.90;;;;;;5054793;28;20045;-69
2023/07/03 04:26:18;;;;;;;7.78;3.15;;;15.00;99.90;;;;;;5054728;28;20366;-69
2023/07/03 04:28:44;;;;;;;10.07;2.90;;;15.00;99.90;;;;;;5055167;28;20483;-69
2023/07/03 04:31:09;;;;;;;7.50;3.22;;;15.00;99.90;;;;;;5054696;28;20580;-69
2023/07/03 04:33:35;;;;;;;12.00;3.03;;;15.00;99.90;;;;;;5054049;28;20358;-69
2023/07/03 04:36:01;;;;;;;8.18;3.25;;;15.00;99.90;;;;;;5054481;28;20088;-69
2023/07/03 04:38:27;;;;;;;6.28;2.63;;;15.00;99.90;;;;;;5054414;28;20141;-69
2023/07/03 04:40:53;;;;;;;9.20;3.25;;;15.00;99.90;;;;;;5054203;28;20061;-69
2023/07/03 04:43:20;;;;;;;5.43;3.25;;;15.10;99.90;;;;;;5054385;28;20065;-69
2023/07/03 04:45:51;;;;;;;4.05;2.63;;;15.10;99.90;;;;;;5054650;28;20041;-69
2023/07/03 04:48:18;;;;;;;7.18;3.10;;;15.20;99.90;;;;;;5054370;28;20135;-69
2023/07/03 04:50:49;;;;;;;7.07;2.88;;;15.20;99.90;;;;;;5054209;28;20063;-68
2023/07/03 04:53:16;;;;;;;6.65;2.70;;;15.20;99.90;;;;;;5054036;28;20053;-69
2023/07/03 04:55:42;;;;;;;10.02;3.22;;;15.30;99.90;;;;;;5053918;28;20053;-69
2023/07/03 04:58:09;;;;;;;4.88;3.00;;;15.30;99.90;;;;;;5053484;28;20373;-69
2023/07/03 05:00:35;;;;;;;3.85;2.42;;;15.40;99.90;;;;;;5054564;28;20116;-69
2023/07/03 05:03:03;;;;;;;4.90;2.80;;;15.40;99.90;;;;;;5053871;28;20148;-68
2023/07/03 05:05:29;;;;;;;7.75;3.25;;;15.50;99.90;;;;;;5052613;28;20084;-68
2023/07/03 05:07:55;;;;;;;8.52;3.10;;;15.50;99.90;;;;;;5036415;28;20064;-69
2023/07/03 05:10:22;;;;;;;6.97;3.28;;;15.60;99.90;;;;;;5053551;28;20053;-69
2023/07/03 05:12:48;;;;;;;5.07;2.55;;;15.70;99.90;;;;;;5053715;28;20114;-69
2023/07/03 05:15:16;;;;;;;7.97;2.97;;;15.70;99.90;;;;;;5053876;28;20044;-69
2023/07/03 05:17:42;;;;;;;6.28;2.40;;;15.80;99.90;;;;;;5052596;28;20067;-69
2023/07/03 05:20:12;;;;;;;11.52;2.80;;;15.90;99.90;;;;;;5036058;28;20037;-69
2023/07/03 05:22:40;;;;;;;7.43;2.95;;;15.90;99.90;;;;;;5053566;28;20041;-69
2023/07/03 05:25:08;;;;;;;5.53;2.83;;;16.00;99.90;;;;;;5053338;28;20503;-69
2023/07/03 05:27:35;;;;;;;8.48;2.83;;;16.10;99.90;;;;;;5052350;28;20387;-68
2023/07/03 05:30:01;;;;;;;6.60;3.15;;;16.20;99.90;;;;;;5052367;28;20505;-69
2023/07/03 05:32:27;;;;;;;7.28;2.42;;;16.40;99.90;;;;;;5052272;28;20045;-70
2023/07/03 05:34:52;;;;;;;5.53;3.10;;;16.40;99.90;;;;;;5053337;28;20045;-68
2023/07/03 05:37:19;;;;;;;7.75;3.05;;;16.70;99.90;;;;;;5053400;28;20098;-69
2023/07/03 05:39:49;;;;;;;6.22;3.20;;;16.60;99.90;;;;;;5052282;28;20060;-69
2023/07/03 05:42:19;;;;;;;7.88;3.17;;;16.70;99.90;;;;;;5052029;28;20068;-69
2023/07/03 05:44:45;;;;;;;6.53;2.90;;;16.70;99.90;;;;;;5053149;28;20049;-70
2023/07/03 05:47:12;;;;;;;6.28;3.00;;;16.80;99.90;;;;;;5052831;28;20072;-69
2023/07/03 05:49:38;;;;;;;9.50;3.30;;;16.90;99.90;;;;;;5052199;28;20045;-69
2023/07/03 05:52:04;;;;;;;6.68;2.80;;;17.00;99.90;;;;;;5052360;28;20149;-70
2023/07/03 05:54:30;;;;;;;6.45;2.40;;;17.10;99.90;;;;;;5053005;28;20041;-70
2023/07/03 05:56:57;;;;;;;10.50;3.17;;;17.10;99.90;;;;;;5053419;28;20091;-69
2023/07/03 05:59:23;;;;;;;11.13;3.22;;;17.10;99.90;;;;;;5052887;28;20119;-70
2023/07/03 06:01:49;;;;;;;8.23;3.00;;;17.10;99.90;;;;;;5052789;28;20127;-70
2023/07/03 06:04:16;;;;;;;10.25;3.30;;;17.10;99.90;;;;;;5053120;28;20103;-70
2023/07/03 06:06:41;;;;;;;8.20;2.80;;;17.10;99.90;;;;;;5053123;28;20370;-69
2023/07/03 06:09:07;;;;;;;8.00;2.65;;;17.20;99.90;;;;;;5052867;28;20041;-69
2023/07/03 06:11:33;;;;;;;9.70;3.00;;;17.30;99.90;;;;;;5053179;28;20508;-70
2023/07/03 06:13:59;;;;;;;7.68;2.58;;;17.40;99.90;;;;;;5052436;28;20045;-69
2023/07/03 06:16:27;;;;;;;3.97;2.70;;;17.40;99.90;;;;;;5051242;28;20155;-69
2023/07/03 06:18:54;;;;;;;7.53;3.00;;;17.50;99.90;;;;;;5052513;28;20049;-70
2023/07/03 06:21:19;;;;;;;10.20;4.20;;;17.70;99.90;;;;;;5053011;28;20049;-69
2023/07/03 06:23:45;;;;;;;8.43;2.80;;;18.10;99.90;;;;;;5052816;28;20141;-70
2023/07/03 06:26:11;;;;;;;6.40;2.65;;;18.60;99.90;;;;;;5052547;28;20431;-70
2023/07/03 06:28:36;;;;;;;8.68;2.67;;;19.20;99.90;;;;;;5052147;28;20048;-70
2023/07/03 06:31:02;;;;;;;4.30;2.42;;;20.30;99.80;;;;;;5051310;28;20120;-70
2023/07/03 06:33:28;;;;;;;5.35;2.53;;;21.00;98.10;;;;;;5052800;28;20442;-70
2023/07/03 06:35:54;;;;;;;6.93;2.50;;;21.00;97.30;;;;;;5052353;28;20091;-70
2023/07/03 06:38:20;;;;;;;6.78;2.10;;;20.60;97.20;;;;;;5052450;28;20048;-70
2023/07/03 06:40:56;;;;;;;5.63;2.42;;;20.10;97.10;;;;;;5052168;28;20061;-70
2023/07/03 06:43:21;;;;;;;5.25;2.33;;;19.50;95.90;;;;;;5052329;28;20052;-70
2023/07/03 06:45:47;;;;;;;22.38;6.22;;;19.20;97.90;;;;;;5051202;28;20045;-72
2023/07/03 06:48:13;;;;;;;6.15;3.00;;;18.60;99.90;;;;;;5051988;28;20049;-71
2023/07/03 06:50:39;;;;;;;7.93;3.50;;;18.00;99.90;;;;;;5052142;28;20097;-72
2023/07/03 06:53:04;;;;;;;6.00;3.08;;;17.50;99.90;;;;;;5052599;28;20052;-71
2023/07/03 06:55:30;;;;;;;6.20;3.10;;;17.30;99.90;;;;;;5052557;28;20450;-71
2023/07/03 06:57:56;;;;;;;6.75;2.90;;;17.10;99.90;;;;;;5050191;28;20401;-71
2023/07/03 07:00:21;;;;;;;5.60;3.10;;;17.00;99.90;;;;;;5052228;28;20071;-71
2023/07/03 07:02:47;;;;;;;9.55;3.05;;;16.90;99.90;;;;;;5051993;28;20401;-71
2023/07/03 07:05:13;;;;;;;10.95;3.50;;;16.90;99.90;;;;;;5052137;28;20484;-71
2023/07/03 07:07:38;;;;;;;10.95;3.60;;;16.90;99.90;;;;;;5051967;28;20057;-70
2023/07/03 07:10:04;;;;;;;7.25;3.17;;;16.90;99.90;;;;;;5051967;28;20124;-70
2023/07/03 07:12:30;;;;;;;8.00;3.08;;;17.10;99.90;;;;;;5051989;28;20041;-70
2023/07/03 07:14:56;;;;;;;5.00;3.15;;;18.00;99.90;;;;;;5052458;28;20107;-68
2023/07/03 07:17:21;;;;;;;4.35;2.55;;;19.40;99.90;;;;;;5050865;28;20068;-69
2023/07/03 07:19:47;;;;;;;8.20;3.47;;;20.50;99.90;;;;;;5051623;28;20044;-69
2023/07/03 07:22:13;;;;;;;9.10;3.95;;;21.40;99.90;;;;;;5052055;28;20406;-68
2023/07/03 07:24:39;;;;;;;7.72;3.33;;;22.00;99.90;;;;;;5051806;28;20041;-69
2023/07/03 07:27:05;;;;;;;6.32;2.75;;;22.50;99.90;;;;;;5051793;28;20086;-70
2023/07/03 07:29:31;;;;;;;6.10;2.97;;;22.90;99.90;;;;;;5050600;28;20045;-68
2023/07/03 07:31:57;;;;;;;8.32;2.70;;;23.20;99.90;;;;;;5051983;28;20195;-68
2023/07/03 07:34:23;;;;;;;5.68;2.40;;;23.40;99.90;;;;;;5052062;28;20040;-69
2023/07/03 07:36:49;;;;;;;7.63;2.78;;;23.70;99.90;;;;;;5051108;28;20053;-69
2023/07/03 07:39:19;;;;;;;7.75;2.58;;;23.30;98.70;;;;;;5052123;28;20100;-68
2023/07/03 07:41:45;;;;;;;5.53;2.28;;;22.50;98.70;;;;;;5052014;28;20057;-67
2023/07/03 07:44:11;;;;;;;2.85;1.85;;;21.80;99.90;;;;;;5051597;28;20052;-67
2023/07/03 07:46:37;;;;;;;6.38;2.67;;;21.00;99.90;;;;;;5051421;28;20055;-68
2023/07/03 07:49:03;;;;;;;4.13;2.47;;;20.00;99.90;;;;;;5051582;28;20120;-68
2023/07/03 07:51:30;;;;;;;7.60;2.00;;;19.30;99.90;;;;;;5050255;28;20445;-68
2023/07/03 07:53:57;;;;;;;3.63;2.65;;;18.90;99.90;;;;;;5051537;28;20098;-68
2023/07/03 07:56:23;;;;;;;3.63;2.30;;;18.50;99.90;;;;;;5051368;28;20548;-68
2023/07/03 07:58:50;;;;;;;4.55;2.75;;;18.20;99.90;;;;;;5051461;28;20124;-68
2023/07/03 08:01:16;;;;;;;5.40;2.47;;;18.00;99.90;;;;;;5051439;28;20051;-68
2023/07/03 08:03:43;;;;;;;6.15;2.78;;;18.00;99.90;;;;;;5051328;28;20136;-68
2023/07/03 08:06:10;;;;;;;6.00;2.30;;;18.00;99.90;;;;;;5051662;28;20134;-68
2023/07/03 08:08:36;;;;;;;7.10;2.58;;;18.00;99.90;;;;;;5052169;28;20053;-68
2023/07/03 08:11:05;;;;;;;2.33;1.77;;;18.00;99.90;;;;;;5054823;28;20049;-67
2023/07/03 08:13:32;;;;;;;6.10;2.25;;;17.90;99.90;;;;;;5054870;28;20083;-67
2023/07/03 08:15:58;;;;;;;3.92;2.53;;;18.00;99.90;;;;;;5054558;28;20056;-67
2023/07/03 08:18:25;;;;;;;6.20;2.20;;;17.90;99.90;;;;;;5053833;28;20041;-67
2023/07/03 08:20:52;;;;;;;6.35;2.25;;;18.00;99.90;;;;;;5055026;28;20056;-69
2023/07/03 08:23:18;;;;;;;3.97;2.60;;;17.90;99.90;;;;;;5054702;28;20049;-68
2023/07/03 08:25:47;;;;;;;4.70;2.20;;;18.00;99.90;;;;;;5053816;28;20052;-68
2023/07/03 08:28:13;;;;;;;6.10;2.22;;;18.10;99.90;;;;;;5054290;28;20482;-69
2023/07/03 08:30:39;;;;;;;4.30;2.00;;;18.80;99.90;;;;;;5054797;28;20045;-69
2023/07/03 08:33:04;;;;;;;5.68;2.20;;;20.20;99.90;;;;;;5054685;28;20041;-69
2023/07/03 08:35:30;;;;;;;6.50;2.15;;;21.30;99.90;;;;;;5054924;28;20045;-69
2023/07/03 08:37:56;;;;;;;4.13;2.10;;;21.30;99.90;;;;;;5054912;28;20044;-69
2023/07/03 08:40:22;;;;;;;6.90;2.08;;;21.10;99.90;;;;;;5054457;28;20052;-69
2023/07/03 08:42:53;;;;;;;4.47;1.92;;;20.90;99.90;;;;;;5054405;28;20052;-69
2023/07/03 08:45:38;;;;;;;5.18;1.60;;;20.80;99.70;;;;;;5054839;28;20363;-69
2023/07/03 08:48:10;;;;;;;4.75;2.25;;;20.80;99.70;;;;;;5055194;28;20075;-69
2023/07/03 08:50:37;;;;;;;;;;;21.20;99.90;;;;;;5054841;28;20045;-68
2023/07/03 08:53:04;;;;;;;5.43;2.10;;;20.80;98.50;;;;;;5054082;28;19920;-70
2023/07/03 08:55:40;;;;;;;3.75;1.88;;;20.90;99.90;;;;;;5054277;28;20053;-70
2023/07/03 08:58:08;;;;;;;3.63;1.85;;;21.30;99.70;;;;;;5054793;28;20071;-69
2023/07/03 09:00:42;;;;;;;6.40;1.83;;;21.40;99.70;;;;;;5053476;28;20048;-69
2023/07/03 09:03:40;;;;;;;5.35;1.83;;;21.10;98.30;;;;;;5053155;28;20424;-69
2023/07/03 09:06:11;;;;;;;7.82;2.60;;;21.50;97.30;;;;;;5041646;28;20056;-69
2023/07/03 09:08:56;;;;;;;2.88;1.90;;;21.40;98.30;;;;;;5053706;28;20048;-69
2023/07/03 09:11:24;;;;;;;3.42;1.70;;;21.30;97.70;;;;;;5054157;28;20060;-69
2023/07/03 09:13:54;;;;;;;4.68;2.00;;;21.30;98.60;;;;;;5054540;28;20052;-70
2023/07/03 09:16:23;;;;;;;4.70;1.83;;;21.40;98.90;;;;;;5053766;28;20055;-70
2023/07/03 09:18:59;;;;;;;6.95;2.35;;;21.10;99.20;;;;;;5054228;28;20045;-69
2023/07/03 09:21:27;;;;;;;2.83;2.00;;;20.70;97.90;;;;;;5053211;28;20044;-69
2023/07/03 09:24:04;;;;;;;5.18;1.67;;;20.20;97.40;;;;;;5053720;28;20133;-69
2023/07/03 09:26:47;;;;;;;5.07;1.77;;;20.40;98.80;;;;;;5054089;28;20175;-69
2023/07/03 09:29:13;;;;;;;;;;;20.40;97.40;;;;;;5054002;28;20049;-69
2023/07/03 09:31:39;;;;;;;3.72;1.85;;;20.30;98.40;;;;;;5053571;28;19927;-70
2023/07/03 09:34:05;;;;;;;5.43;1.95;;;20.30;98.90;;;;;;5052329;28;20131;-70
2023/07/03 09:36:35;;;;;;;3.10;1.50;;;20.00;98.00;;;;;;5053577;28;20045;-69
2023/07/03 09:39:12;;;;;;;3.65;1.88;;;20.00;97.90;;;;;;5052664;28;20430;-69
2023/07/03 09:41:39;;;;;;;5.05;1.63;;;20.30;97.90;;;;;;5053466;28;20064;-69
2023/07/03 09:44:07;;;;;;;3.08;1.58;;;20.80;97.00;;;;;;5053215;28;20071;-70
2023/07/03 09:46:33;;;;;;;3.60;1.52;;;21.00;96.80;;;;;;5053305;28;20103;-69
2023/07/03 09:49:02;;;;;;;3.97;1.35;;;20.80;96.40;;;;;;5053604;28;20048;-69
2023/07/03 09:51:30;;;;;;;3.40;1.33;;;20.50;93.90;;;;;;5051967;28;20064;-69
2023/07/03 09:53:57;;;;;;;3.00;1.20;;;20.30;95.90;;;;;;5035218;28;20409;-69
2023/07/03 09:56:28;;;;;;;2.90;1.23;;;20.10;95.70;;;;;;5053038;28;20053;-69
2023/07/03 09:59:00;;;;;;;1.92;1.17;;;19.80;96.00;;;;;;5051906;28;20045;-69
2023/07/03 10:01:30;;;;;;;3.75;1.48;;;19.60;96.80;;;;;;5053625;28;20041;-70
2023/07/03 10:04:05;;;;;;;2.25;1.50;;;19.50;96.40;;;;;;5053249;28;20037;-69
2023/07/03 10:06:31;;;;;;;2.03;1.20;;;19.60;96.50;;;;;;5052067;28;20053;-70
2023/07/03 10:09:00;;;;;;;4.22;1.85;;;19.40;96.50;;;;;;5052758;28;20094;-69
2023/07/03 10:11:44;;;;;;;2.38;1.40;;;19.70;97.30;;;;;;5052785;28;20474;-69
2023/07/03 10:14:18;;;;;;;3.13;1.85;;;19.90;97.00;;;;;;5052553;28;20462;-70
2023/07/03 10:16:45;;;;;;;3.45;2.03;;;20.10;96.50;;;;;;5052599;28;20048;-70
2023/07/03 10:19:11;;;;;;;3.33;1.65;;;20.10;96.50;;;;;;5051947;28;20049;-70
2023/07/03 10:21:38;;;;;;;1.95;1.70;;;20.00;96.40;;;;;;5052521;28;20361;-70
2023/07/03 10:24:05;;;;;;;4.20;1.63;;;19.70;96.40;;;;;;5052679;28;20041;-71
2023/07/03 10:26:42;;;;;;;1.52;1.40;;;19.30;96.80;;;;;;5052502;28;20226;-70
2023/07/03 10:29:17;;;;;;;2.20;1.10;;;18.80;97.20;;;;;;5052478;28;20045;-69
2023/07/03 10:32:00;;;;;;;3.05;1.23;;;18.40;97.40;;;;;;5052386;28;20044;-70
2023/07/03 10:34:40;;;;;;;2.97;1.30;;;18.10;97.70;;;;;;5051282;28;20095;-69
2023/07/03 10:37:10;;;;;;;1.50;1.20;;;18.00;98.00;;;;;;5052580;28;20045;-70
2023/07/03 10:39:42;;;;;;;2.15;1.25;;;17.90;98.30;;;;;;5052698;28;20041;-69
2023/07/03 10:42:19;;;;;;;3.65;1.92;;;18.00;98.70;;;;;;5050800;28;20515;-69
2023/07/03 10:44:46;;;;;;;2.28;1.48;;;18.80;99.90;;;;;;5052667;28;20049;-69
2023/07/03 10:47:34;;;;;;;2.58;1.52;;;19.60;99.00;;;;;;5052076;28;20049;-70
2023/07/03 10:50:00;;;;;;;2.10;1.40;;;20.30;99.40;;;;;;5052123;28;20049;-70
2023/07/03 10:53:04;;;;;;;2.75;1.70;;;20.70;99.40;;;;;;5052410;28;20462;-69
2023/07/03 10:56:02;;;;;;;7.13;3.10;;;21.10;98.20;;;;;;5052193;28;20052;-70
2023/07/03 10:58:31;;;;;;;2.20;1.55;;;21.00;96.50;;;;;;5052295;28;20041;-70
2023/07/03 11:01:06;;;;;;;3.17;1.25;;;21.00;97.40;;;;;;5051966;28;20051;-70
2023/07/03 11:03:53;;;;;;;4.00;1.63;;;21.30;98.30;;;;;;5052316;28;20132;-70
2023/07/03 11:06:44;;;;;;;2.70;1.45;;;21.40;96.90;;;;;;5052290;28;20535;-70
2023/07/03 11:09:21;;;;;;;2.83;1.75;;;21.50;96.60;;;;;;5052039;28;20067;-70
2023/07/03 11:12:05;;;;;;;2.55;1.33;;;21.60;97.30;;;;;;5052309;28;20060;-70
2023/07/03 11:14:42;;;;;;;4.32;2.30;;;21.60;95.70;;;;;;5052530;28;20049;-70
2023/07/03 11:17:11;;;;;;;3.85;1.45;;;21.40;93.50;;;;;;5052011;28;20052;-70
2023/07/03 11:19:43;;;;;;;3.58;1.25;;;21.60;94.70;;;;;;5052066;28;20045;-70
2023/07/03 11:22:29;;;;;;;;;;;21.60;93.80;;;;;;5052498;28;20076;-70
2023/07/03 11:24:58;;;;;;;2.00;1.10;;;21.30;91.30;;;;;;5049846;28;19920;-70
2023/07/03 11:28:01;;;;;;;2.35;1.08;;;21.20;92.10;;;;;;5050905;28;20362;-70
2023/07/03 11:30:27;;;;;;;2.30;1.10;;;20.90;91.10;;;;;;5051774;28;20476;-70
2023/07/03 11:32:54;;;;;;;4.30;1.92;;;20.80;92.90;;;;;;5052044;28;20123;-70
2023/07/03 11:35:21;;;;;;;3.30;1.60;;;20.60;92.40;;;;;;5051866;28;20099;-69
2023/07/03 11:37:58;;;;;;;2.90;1.20;;;20.30;92.20;;;;;;5051793;28;20048;-70
2023/07/03 11:40:37;;;;;;;2.38;1.30;;;20.10;92.40;;;;;;5051717;28;20203;-69
2023/07/03 11:43:08;;;;;;;3.95;1.25;;;19.90;92.40;;;;;;5051775;28;20052;-70
2023/07/03 11:45:36;;;;;;;2.63;1.25;;;19.80;92.80;;;;;;5055767;28;20081;-69
2023/07/03 11:48:02;;;;;;;5.10;2.00;;;19.80;93.20;;;;;;5055439;28;20148;-70
2023/07/03 11:50:33;;;;;;;4.50;1.27;;;20.10;93.10;;;;;;5055435;28;20041;-69
2023/07/03 11:53:01;;;;;;;5.03;1.20;;;20.20;92.70;;;;;;5055806;28;20088;-69
2023/07/03 11:55:37;;;;;;;1.60;1.20;;;20.40;92.40;;;;;;5055468;28;20052;-69
2023/07/03 11:58:04;;;;;;;2.63;1.02;;;20.40;91.20;;;;;;5055373;28;20126;-69
2023/07/03 12:00:31;;;;;;;1.52;1.23;;;20.40;91.70;;;;;;5055338;28;20124;-69
2023/07/03 12:03:05;;;;;;;3.10;1.55;;;20.60;92.60;;;;;;5055342;28;20446;-69
2023/07/03 12:05:43;;;;;;;2.33;1.20;;;20.90;92.30;;;;;;5055276;28;20048;-70
2023/07/03 12:08:18;;;;;;;2.42;1.02;;;20.60;91.00;;;;;;5055210;28;20045;-69
2023/07/03 12:10:52;;;;;;;2.47;2.10;;;20.40;91.90;;;;;;5053787;28;20041;-69
2023/07/03 12:13:39;;;;;;;3.17;1.60;;;20.10;92.20;;;;;;5054736;28;20432;-69
2023/07/03 12:16:17;;;;;;;2.22;1.55;;;20.00;93.20;;;;;;5055162;28;20119;-70
2023/07/03 12:18:42;;;;;;;2.67;1.45;;;19.80;93.30;;;;;;5055216;28;20052;-70
2023/07/03 12:21:08;;;;;;;3.65;1.40;;;19.60;92.80;;;;;;5055408;28;20093;-70
2023/07/03 12:23:36;;;;;;;2.55;1.45;;;19.50;92.80;;;;;;5054599;28;20048;-69
2023/07/03 12:26:03;;;;;;;4.05;1.40;;;19.50;92.50;;;;;;5054288;28;20401;-69
2023/07/03 12:28:29;;;;;;;3.83;1.58;;;19.40;92.30;;;;;;5055030;28;20187;-69
2023/07/03 12:31:15;;;;;;;3.00;1.38;;;19.40;92.60;;;;;;5053881;28;20521;-70
2023/07/03 12:34:07;;;;;;;3.17;2.38;;;19.20;92.10;;;;;;5053686;28;20062;-69
2023/07/03 12:36:35;;;;;;;5.05;1.77;;;19.20;92.30;;;;;;5051710;28;20072;-70
2023/07/03 12:39:10;;;;;;;6.68;1.42;;;19.20;92.90;;;;;;5054391;28;20060;-70
2023/07/03 12:41:36;;;;;;;2.30;1.45;;;19.20;92.70;;;;;;5053936;28;20061;-70
2023/07/03 12:44:03;;;;;;;1.98;1.40;;;19.20;93.00;;;;;;5054277;28;20067;-70
2023/07/03 12:46:37;;;;;;;2.25;1.30;;;19.30;93.30;;;;;;5054066;28;20048;-70
2023/07/03 12:49:24;;;;;;;3.30;1.27;;;19.30;93.30;;;;;;5054572;28;20083;-69
2023/07/03 12:51:52;;;;;;;2.63;1.45;;;19.20;93.00;;;;;;5054110;28;20088;-70
2023/07/03 12:54:20;;;;;;;3.03;1.70;;;19.10;92.70;;;;;;5054521;28;20047;-69